Time;durP1;ratioP1;P1;durP2;ratioP2;P2;SDS_P1;SDS_P2;PMS_P1;PMS_P2;Temp;Humidity;BMP_temperature;BMP_pressure;BME280_temperature;BME280_humidity;BME280_pressure;Samples;Min_cycle;Max_cycle;Signal;HPM_P1;HPM_P2
2022/09/29 00:00:19;;;;;;;9.60;8.57;;;;;;;13.59;100.00;98423.72;6279826;22;20027;-91
2022/09/29 00:02:45;;;;;;;9.18;8.27;;;;;;;13.57;100.00;98421.44;6306041;22;20010;-92
2022/09/29 00:05:11;;;;;;;11.05;9.30;;;;;;;13.57;100.00;98421.44;6307026;22;20022;-92
2022/09/29 00:07:36;;;;;;;10.10;9.13;;;;;;;13.53;100.00;98416.09;6281084;22;20010;-89
2022/09/29 00:10:03;;;;;;;11.85;9.43;;;;;;;13.47;100.00;98409.69;6277722;22;20031;-92
2022/09/29 00:12:29;;;;;;;10.50;9.40;;;;;;;13.46;100.00;98410.22;6277019;22;20022;-88
2022/09/29 00:14:54;;;;;;;11.98;10.77;;;;;;;13.41;100.00;98410.94;6278873;22;20086;-90
2022/09/29 00:17:20;;;;;;;13.02;10.20;;;;;;;13.40;100.00;98417.75;6306599;22;20022;-92
2022/09/29 00:19:45;;;;;;;12.82;10.25;;;;;;;13.31;100.00;98407.56;6304878;22;19995;-89
2022/09/29 00:22:11;;;;;;;10.23;9.23;;;;;;;13.39;100.00;98405.06;6280038;22;20559;-91
2022/09/29 00:24:36;;;;;;;10.57;9.48;;;;;;;13.45;100.00;98419.81;6305913;22;20452;-91
2022/09/29 00:27:02;;;;;;;9.32;8.32;;;;;;;13.51;100.00;98424.16;6304482;22;20456;-91
2022/09/29 00:29:27;;;;;;;11.07;10.02;;;;;;;13.52;100.00;98411.78;6305292;22;20141;-90
2022/09/29 00:31:53;;;;;;;9.93;8.60;;;;;;;13.55;100.00;98407.22;6305452;22;20066;-91
2022/09/29 00:34:19;;;;;;;10.00;8.85;;;;;;;13.52;100.00;98408.22;6250547;22;20011;-91
2022/09/29 00:36:44;;;;;;;10.85;8.65;;;;;;;13.50;100.00;98403.16;6276684;22;20042;-90
2022/09/29 00:39:10;;;;;;;11.45;8.50;;;;;;;13.51;100.00;98395.53;6306374;22;20062;-89
2022/09/29 00:41:37;;;;;;;8.88;7.78;;;;;;;13.52;100.00;98385.94;6304842;22;20379;-89
2022/09/29 00:44:42;;;;;;;9.93;7.75;;;;;;;13.63;100.00;98386.00;6277841;22;20003;-90
2022/09/29 00:47:08;;;;;;;;;;;;;;;13.67;100.00;98380.94;6246949;22;20025;-90
2022/09/29 00:49:36;;;;;;;8.02;6.88;;;;;;;13.69;100.00;98378.44;6277640;22;19997;-90
2022/09/29 00:52:17;;;;;;;9.05;6.97;;;;;;;13.69;100.00;98384.03;6303950;22;20017;-89
2022/09/29 00:55:05;;;;;;;8.50;7.03;;;;;;;13.72;100.00;98393.41;6305260;22;20011;-89
2022/09/29 00:57:35;;;;;;;9.80;7.28;;;;;;;13.68;100.00;98388.06;6274300;22;20015;-89
2022/09/29 01:00:05;;;;;;;9.90;8.13;;;;;;;13.65;100.00;98394.63;6277213;22;20007;-90
2022/09/29 01:05:32;;;;;;;10.60;8.95;;;;;;;13.55;100.00;98401.66;6298906;22;20019;-87
2022/09/29 01:08:07;;;;;;;13.60;8.73;;;;;;;13.65;100.00;98416.16;6303488;22;20450;-88
2022/09/29 01:10:33;;;;;;;11.07;8.07;;;;;;;13.66;100.00;98407.31;6252190;22;20011;-86
2022/09/29 01:12:58;;;;;;;9.90;8.75;;;;;;;13.60;100.00;98403.72;6249988;22;20003;-86
2022/09/29 01:15:24;;;;;;;10.00;8.55;;;;;;;13.60;100.00;98409.28;6302344;22;20011;-86
2022/09/29 01:17:50;;;;;;;9.60;8.60;;;;;;;13.59;100.00;98410.53;6276889;22;20350;-86
2022/09/29 01:20:19;;;;;;;9.48;8.20;;;;;;;13.65;100.00;98416.91;6275443;22;20102;-85
2022/09/29 01:23:16;;;;;;;13.32;10.05;;;;;;;13.63;100.00;98419.44;6276361;22;20072;-86
2022/09/29 01:25:44;;;;;;;10.45;8.27;;;;;;;13.64;100.00;98414.63;6277022;22;20015;-87
2022/09/29 01:28:36;;;;;;;10.68;9.40;;;;;;;13.62;100.00;98417.16;6302381;22;20003;-87
2022/09/29 01:31:09;;;;;;;10.10;8.20;;;;;;;13.64;100.00;98423.75;6277137;22;20082;-87
2022/09/29 01:33:47;;;;;;;10.52;8.65;;;;;;;13.73;100.00;98431.16;6277026;22;20027;-87
2022/09/29 01:36:22;;;;;;;11.32;8.70;;;;;;;13.73;100.00;98440.28;6277663;22;20015;-86
2022/09/29 01:38:57;;;;;;;9.45;8.27;;;;;;;13.72;100.00;98433.19;6277394;22;20023;-88
2022/09/29 01:41:27;;;;;;;8.68;7.78;;;;;;;13.75;100.00;98432.16;6278233;22;20051;-86
2022/09/29 01:44:00;;;;;;;9.82;8.15;;;;;;;13.76;100.00;98417.00;6274361;22;20014;-87
2022/09/29 01:46:30;;;;;;;9.98;8.02;;;;;;;13.75;100.00;98423.06;6305969;22;20125;-87
2022/09/29 01:48:56;;;;;;;8.95;7.93;;;;;;;13.70;100.00;98402.28;6275863;22;20035;-87
2022/09/29 01:51:45;;;;;;;9.20;8.30;;;;;;;13.72;100.00;98410.88;6278233;22;20085;-87
2022/09/29 01:54:18;;;;;;;6.88;5.30;;;;;;;13.46;100.00;98421.34;6301477;22;20050;-86
2022/09/29 01:56:53;;;;;;;4.68;4.05;;;;;;;12.96;100.00;98413.31;6250785;22;20430;-86
2022/09/29 01:59:27;;;;;;;4.88;3.72;;;;;;;12.76;100.00;98427.28;6249340;22;20079;-87
2022/09/29 02:01:58;;;;;;;5.00;3.78;;;;;;;12.56;100.00;98413.44;6275906;22;20010;-86
2022/09/29 02:04:44;;;;;;;8.75;4.40;;;;;;;12.38;100.00;98427.63;6276156;22;20921;-87
2022/09/29 02:07:19;;;;;;;7.47;4.18;;;;;;;12.14;100.00;98416.72;6300673;22;20012;-86
2022/09/29 02:09:48;;;;;;;4.45;3.85;;;;;;;12.08;100.00;98418.69;6274990;22;20035;-86
2022/09/29 02:12:24;;;;;;;5.88;3.80;;;;;;;11.87;100.00;98423.44;6275600;22;20019;-85
2022/09/29 02:14:52;;;;;;;5.47;3.88;;;;;;;11.73;100.00;98424.25;6301416;22;20022;-85
2022/09/29 02:17:18;;;;;;;5.45;4.10;;;;;;;11.66;100.00;98414.28;6303365;22;20015;-86
2022/09/29 02:19:45;;;;;;;6.15;4.40;;;;;;;11.57;100.00;98408.09;6249761;22;20011;-85
2022/09/29 02:22:11;;;;;;;5.47;4.22;;;;;;;11.58;100.00;98415.19;6274919;22;20074;-85
2022/09/29 02:24:36;;;;;;;5.35;4.30;;;;;;;11.46;100.00;98402.38;6249320;22;20109;-85
2022/09/29 02:27:02;;;;;;;5.50;4.07;;;;;;;11.49;100.00;98412.50;6275426;22;20027;-86
2022/09/29 02:29:28;;;;;;;5.25;3.80;;;;;;;11.34;100.00;98412.53;6274946;22;20014;-86
2022/09/29 02:31:54;;;;;;;5.13;3.10;;;;;;;11.33;100.00;98413.00;6305225;22;20011;-86
2022/09/29 02:34:20;;;;;;;3.40;2.72;;;;;;;11.22;100.00;98411.59;6277338;22;20516;-86
2022/09/29 02:37:10;;;;;;;3.20;2.60;;;;;;;11.12;100.00;98401.84;6277873;22;20015;-85
2022/09/29 02:40:13;;;;;;;4.32;2.53;;;;;;;10.97;100.00;98420.53;6304743;22;20022;-85
2022/09/29 02:42:48;;;;;;;3.00;2.38;;;;;;;10.99;100.00;98420.81;6277628;22;20019;-85
2022/09/29 02:45:34;;;;;;;4.40;2.40;;;;;;;10.87;100.00;98423.88;6278364;22;20037;-84
2022/09/29 02:48:00;;;;;;;3.13;2.10;;;;;;;10.87;100.00;98423.88;6275169;22;20085;-85
2022/09/29 02:50:56;;;;;;;3.05;1.98;;;;;;;10.66;100.00;98434.09;6304795;22;20407;-84
2022/09/29 02:53:49;;;;;;;3.58;1.77;;;;;;;10.59;100.00;98442.78;6304516;22;20022;-85
2022/09/29 02:56:44;;;;;;;2.77;1.80;;;;;;;10.46;100.00;98456.13;6303967;22;20292;-86
2022/09/29 02:59:14;;;;;;;1.65;1.30;;;;;;;10.36;100.00;98451.88;6301291;22;20027;-85
2022/09/29 03:01:52;;;;;;;7.47;1.70;;;;;;;10.38;100.00;98457.72;6252359;22;20346;-84
2022/09/29 03:04:19;;;;;;;2.72;1.20;;;;;;;10.39;100.00;98462.03;6305356;22;20011;-85
2022/09/29 03:06:44;;;;;;;1.95;1.10;;;;;;;10.33;100.00;98467.47;6253035;22;20039;-85
2022/09/29 03:09:10;;;;;;;2.80;1.30;;;;;;;10.23;100.00;98466.75;6305065;22;20003;-86
2022/09/29 03:11:35;;;;;;;1.35;1.23;;;;;;;10.20;100.00;98462.16;6278473;22;20106;-85
2022/09/29 03:14:02;;;;;;;1.67;1.33;;;;;;;10.21;100.00;98465.69;6304056;22;20003;-85
2022/09/29 03:16:27;;;;;;;2.13;1.42;;;;;;;10.22;100.00;98464.47;6276524;22;20015;-85
2022/09/29 03:18:52;;;;;;;3.13;1.77;;;;;;;10.13;100.00;98468.03;6277289;22;20026;-85
2022/09/29 03:21:18;;;;;;;3.22;1.98;;;;;;;10.07;100.00;98456.06;6278214;22;20375;-85
2022/09/29 03:23:43;;;;;;;2.05;1.80;;;;;;;10.09;100.00;98461.91;6305693;22;20035;-85
2022/09/29 03:26:09;;;;;;;2.85;2.05;;;;;;;10.10;100.00;98466.22;6305237;22;20029;-86
2022/09/29 03:28:35;;;;;;;4.53;2.15;;;;;;;10.02;100.00;98451.19;6302514;22;20007;-86
2022/09/29 03:31:08;;;;;;;2.83;1.70;;;;;;;9.97;100.00;98453.81;6301683;22;20011;-86
2022/09/29 03:33:38;;;;;;;2.85;1.60;;;;;;;9.97;100.00;98462.91;6250025;22;20015;-87
2022/09/29 03:36:05;;;;;;;1.88;1.45;;;;;;;9.93;100.00;98454.00;6302309;22;20500;-87
2022/09/29 03:38:31;;;;;;;1.63;1.30;;;;;;;9.94;100.00;98449.22;6278135;22;20011;-86
2022/09/29 03:40:57;;;;;;;2.92;1.30;;;;;;;9.90;100.00;98457.72;6275726;22;20389;-86
2022/09/29 03:43:22;;;;;;;1.95;1.50;;;;;;;9.83;100.00;98460.81;6302060;22;20011;-86
2022/09/29 03:45:50;;;;;;;2.13;1.38;;;;;;;9.89;100.00;98444.34;6275263;22;20090;-86
2022/09/29 03:48:16;;;;;;;3.65;1.40;;;;;;;9.90;100.00;98471.56;6276795;22;20030;-86
2022/09/29 03:50:41;;;;;;;6.18;1.35;;;;;;;9.87;100.00;98475.25;6301723;22;20011;-86
2022/09/29 03:53:07;;;;;;;1.80;1.25;;;;;;;9.62;100.00;98431.41;6319591;22;20065;-82
2022/09/29 03:55:33;;;;;;;2.75;1.42;;;;;;;9.87;100.00;98469.72;6307997;22;20303;-81
2022/09/29 03:57:58;;;;;;;1.67;1.20;;;;;;;9.88;100.00;98464.94;6331625;22;20339;-81
2022/09/29 04:00:24;;;;;;;2.38;1.23;;;;;;;9.87;100.00;98472.50;6333900;22;20018;-81
2022/09/29 04:02:49;;;;;;;1.23;1.10;;;;;;;9.86;100.00;98478.50;6333516;22;20423;-81
2022/09/29 04:05:17;;;;;;;1.40;1.27;;;;;;;9.84;100.00;98484.50;6333262;22;20011;-81
2022/09/29 04:07:42;;;;;;;5.95;1.40;;;;;;;9.89;100.00;98485.88;6334008;22;20011;-81
2022/09/29 04:10:08;;;;;;;2.55;1.42;;;;;;;9.79;100.00;98460.22;6335712;22;20510;-81
2022/09/29 04:12:34;;;;;;;1.83;1.20;;;;;;;9.78;100.00;98453.16;6304970;22;20006;-82
2022/09/29 04:14:59;;;;;;;1.40;1.00;;;;;;;9.82;100.00;98468.38;6333942;22;20055;-82
2022/09/29 04:17:25;;;;;;;2.63;1.30;;;;;;;9.83;100.00;98471.91;6306081;22;20019;-83
2022/09/29 04:19:51;;;;;;;1.98;1.40;;;;;;;9.79;100.00;98491.44;6308869;22;20019;-83
2022/09/29 04:22:20;;;;;;;1.20;1.10;;;;;;;9.73;100.00;98493.34;6336366;22;20003;-83
2022/09/29 04:24:47;;;;;;;1.60;1.10;;;;;;;9.77;100.00;98491.16;6308883;22;20381;-82
2022/09/29 04:27:13;;;;;;;3.05;1.20;;;;;;;9.79;100.00;98493.44;6334427;22;20010;-83
2022/09/29 04:29:39;;;;;;;2.45;0.90;;;;;;;9.81;100.00;98500.06;6307784;22;20027;-83
2022/09/29 04:32:05;;;;;;;1.67;1.00;;;;;;;9.77;100.00;98484.84;6334399;22;20033;-82
2022/09/29 04:34:31;;;;;;;3.50;1.30;;;;;;;9.82;100.00;98504.38;6308403;22;20075;-82
2022/09/29 04:36:56;;;;;;;4.32;1.52;;;;;;;9.77;100.00;98498.69;6307709;22;20019;-84
2022/09/29 04:39:22;;;;;;;2.95;1.30;;;;;;;9.70;100.00;98491.50;6334928;22;20451;-82
2022/09/29 04:41:47;;;;;;;1.75;1.13;;;;;;;9.74;100.00;98494.13;6305794;22;20176;-82
2022/09/29 04:44:13;;;;;;;2.13;1.50;;;;;;;9.76;100.00;98497.16;6305049;22;20007;-83
2022/09/29 04:46:38;;;;;;;2.25;1.70;;;;;;;9.68;100.00;98484.91;6305039;22;20093;-83
2022/09/29 04:49:04;;;;;;;2.08;1.50;;;;;;;9.50;100.00;98476.69;6331628;22;20064;-83
2022/09/29 04:51:29;;;;;;;2.83;1.50;;;;;;;9.63;100.00;98500.13;6333723;22;20011;-86
2022/09/29 04:53:57;;;;;;;2.33;1.70;;;;;;;9.57;100.00;98487.41;6304899;22;20037;-83
2022/09/29 04:56:22;;;;;;;2.75;1.60;;;;;;;9.55;100.00;98482.31;6327097;22;20018;-84
2022/09/29 04:58:48;;;;;;;1.70;1.42;;;;;;;9.55;100.00;98495.41;6303018;22;20010;-85
2022/09/29 05:01:14;;;;;;;2.22;1.52;;;;;;;9.49;100.00;98495.28;6274545;22;20503;-84
2022/09/29 05:03:40;;;;;;;2.78;1.80;;;;;;;9.46;100.00;98487.91;6277094;22;20030;-85
2022/09/29 05:06:07;;;;;;;2.22;1.52;;;;;;;9.45;100.00;98496.69;6304829;22;20034;-85
2022/09/29 05:08:33;;;;;;;2.42;1.60;;;;;;;9.40;100.00;98498.06;6303088;22;20003;-87
2022/09/29 05:11:03;;;;;;;2.10;1.58;;;;;;;9.42;100.00;98500.38;6303367;22;20015;-89
2022/09/29 05:13:28;;;;;;;2.50;1.75;;;;;;;9.44;100.00;98492.38;6274809;22;20022;-90
2022/09/29 05:15:56;;;;;;;3.50;1.85;;;;;;;9.45;100.00;98502.22;6329413;22;20119;-85
2022/09/29 05:18:22;;;;;;;3.28;1.90;;;;;;;9.43;100.00;98499.13;6276423;22;20029;-86
2022/09/29 05:20:48;;;;;;;2.20;1.77;;;;;;;9.45;100.00;98493.91;6276577;22;20424;-83
2022/09/29 05:23:13;;;;;;;3.00;1.90;;;;;;;9.36;100.00;98489.94;6278475;22;20041;-85
2022/09/29 05:25:39;;;;;;;2.90;2.38;;;;;;;9.38;100.00;98485.94;6278888;22;20040;-86
2022/09/29 05:28:04;;;;;;;2.55;2.05;;;;;;;9.38;100.00;98499.78;6299167;22;20022;-84
2022/09/29 05:30:30;;;;;;;3.10;2.08;;;;;;;9.37;100.00;98501.78;6302069;22;20018;-87
2022/09/29 05:32:56;;;;;;;3.00;2.47;;;;;;;9.38;100.00;98514.38;6276516;22;20019;-85
2022/09/29 05:35:21;;;;;;;2.60;2.30;;;;;;;9.35;100.00;98524.38;6305102;22;20022;-85
2022/09/29 05:37:47;;;;;;;3.45;2.40;;;;;;;9.38;100.00;98524.69;6331710;22;20035;-86
2022/09/29 05:40:12;;;;;;;3.67;2.47;;;;;;;9.45;100.00;98538.19;6302215;22;20057;-87
2022/09/29 05:42:39;;;;;;;2.97;2.40;;;;;;;9.50;100.00;98532.81;6302871;22;20021;-84
2022/09/29 05:45:07;;;;;;;3.83;2.40;;;;;;;9.52;100.00;98529.56;6300527;22;20491;-85
2022/09/29 05:47:33;;;;;;;4.53;2.40;;;;;;;9.47;100.00;98522.66;6301150;22;20014;-85
2022/09/29 05:50:02;;;;;;;3.53;2.35;;;;;;;9.46;100.00;98528.66;6274971;22;20340;-88
2022/09/29 05:52:27;;;;;;;3.67;2.88;;;;;;;9.53;100.00;98536.63;6283860;22;20007;-87
2022/09/29 05:54:53;;;;;;;4.38;2.30;;;;;;;9.54;100.00;98532.63;6280389;22;20041;-89
2022/09/29 05:57:18;;;;;;;5.78;2.60;;;;;;;9.54;100.00;98538.19;6304170;22;20097;-89
2022/09/29 05:59:43;;;;;;;2.67;2.00;;;;;;;9.55;100.00;98545.22;6306009;22;20018;-90
2022/09/29 06:02:09;;;;;;;2.65;1.90;;;;;;;9.51;100.00;98534.31;6306704;22;20014;-89
2022/09/29 06:04:35;;;;;;;2.42;1.77;;;;;;;9.62;100.00;98542.16;6278448;22;20287;-88
2022/09/29 06:07:00;;;;;;;2.50;1.70;;;;;;;9.69;100.00;98544.56;6278548;22;20014;-88
2022/09/29 06:09:26;;;;;;;2.50;1.60;;;;;;;9.78;100.00;98558.41;6303732;22;20110;-89
2022/09/29 06:11:51;;;;;;;2.55;1.30;;;;;;;9.90;100.00;98546.34;6304570;22;20011;-89
2022/09/29 06:14:17;;;;;;;1.52;1.35;;;;;;;10.07;100.00;98546.75;6305504;22;20322;-89
2022/09/29 06:16:43;;;;;;;1.55;1.30;;;;;;;10.15;100.00;98543.16;6304875;22;20028;-89
2022/09/29 06:19:08;;;;;;;1.27;1.10;;;;;;;10.25;100.00;98552.97;6303277;22;20082;-88
2022/09/29 06:21:36;;;;;;;1.83;1.20;;;;;;;10.35;100.00;98550.16;6304976;22;20728;-88
2022/09/29 06:24:02;;;;;;;1.58;1.23;;;;;;;10.41;100.00;98553.78;6306438;22;20046;-87
2022/09/29 06:26:28;;;;;;;3.83;1.10;;;;;;;10.46;100.00;98550.38;6249233;22;20042;-89
2022/09/29 06:28:55;;;;;;;5.85;1.70;;;;;;;10.53;100.00;98555.56;6307885;22;20017;-87
2022/09/29 06:31:23;;;;;;;1.42;1.20;;;;;;;10.61;100.00;98551.97;6257533;22;20379;-87
2022/09/29 06:33:48;;;;;;;3.25;0.95;;;;;;;10.65;100.00;98546.25;6282369;22;20088;-86
2022/09/29 06:39:28;;;;;;;3.10;1.17;;;;;;;10.90;100.00;98545.75;6323938;22;20011;-87
2022/09/29 06:41:55;;;;;;;2.08;1.10;;;;;;;11.05;100.00;98540.97;6336268;22;20244;-86
2022/09/29 06:44:25;;;;;;;1.88;1.10;;;;;;;11.15;100.00;98548.00;6308411;22;20004;-87
2022/09/29 06:46:51;;;;;;;1.15;1.00;;;;;;;11.24;100.00;98539.56;6308894;22;20016;-86
2022/09/29 06:49:17;;;;;;;1.10;1.00;;;;;;;11.40;100.00;98545.91;6308588;22;20340;-87
2022/09/29 06:51:43;;;;;;;2.97;1.00;;;;;;;11.45;100.00;98545.22;6281800;22;20010;-87
2022/09/29 06:54:13;;;;;;;1.30;1.08;;;;;;;11.46;100.00;98553.06;6307852;22;20007;-87
2022/09/29 06:56:38;;;;;;;2.33;1.20;;;;;;;11.46;100.00;98553.06;6309389;22;20011;-88
2022/09/29 06:59:04;;;;;;;1.23;1.10;;;;;;;11.59;100.00;98547.22;6308028;22;20148;-87
2022/09/29 07:01:29;;;;;;;1.42;1.00;;;;;;;11.62;100.00;98554.59;6308428;22;20021;-88
2022/09/29 07:03:55;;;;;;;1.48;1.00;;;;;;;11.55;100.00;98546.66;6282524;22;20014;-88
2022/09/29 07:06:21;;;;;;;4.15;1.20;;;;;;;11.52;100.00;98547.63;6282039;22;20019;-85
2022/09/29 07:08:46;;;;;;;1.83;1.20;;;;;;;11.57;100.00;98546.94;6282879;22;20328;-87
2022/09/29 07:11:12;;;;;;;2.58;1.30;;;;;;;11.60;100.00;98562.66;6282421;22;20337;-87
2022/09/29 07:13:38;;;;;;;1.27;0.95;;;;;;;11.48;100.00;98566.50;6282363;22;20496;-88
2022/09/29 07:16:05;;;;;;;3.65;1.33;;;;;;;11.41;100.00;98572.41;6307871;22;20448;-87
2022/09/29 07:18:33;;;;;;;1.20;1.10;;;;;;;11.43;100.00;98586.59;6282932;22;20022;-88
2022/09/29 07:20:59;;;;;;;1.80;1.30;;;;;;;11.35;100.00;98568.78;6258902;22;20010;-88
2022/09/29 07:23:25;;;;;;;1.83;1.35;;;;;;;11.40;100.00;98565.34;6283948;22;20025;-86
2022/09/29 07:25:51;;;;;;;1.38;1.20;;;;;;;11.47;100.00;98581.59;6310358;22;20017;-88
2022/09/29 07:28:17;;;;;;;2.53;1.52;;;;;;;11.51;100.00;98582.94;6309928;22;20074;-87
2022/09/29 07:30:43;;;;;;;2.03;1.40;;;;;;;11.49;100.00;98577.09;6337845;22;20061;-87
2022/09/29 07:33:08;;;;;;;1.92;1.35;;;;;;;11.53;100.00;98585.22;6335295;22;20007;-87
2022/09/29 07:35:34;;;;;;;4.72;1.20;;;;;;;11.45;100.00;98589.63;6281492;22;20015;-88
2022/09/29 07:37:59;;;;;;;2.45;1.40;;;;;;;11.51;100.00;98610.72;6337374;22;20007;-87
2022/09/29 07:40:26;;;;;;;2.88;1.35;;;;;;;11.53;100.00;98596.34;6286747;22;20359;-87
2022/09/29 07:42:52;;;;;;;1.65;1.30;;;;;;;11.49;100.00;98606.88;6310925;22;20067;-87
2022/09/29 07:45:18;;;;;;;3.20;1.50;;;;;;;11.44;100.00;98616.66;6284215;22;20014;-87
2022/09/29 07:47:43;;;;;;;2.10;1.30;;;;;;;11.50;100.00;98622.28;6309730;22;20007;-84
2022/09/29 07:50:09;;;;;;;1.63;1.30;;;;;;;11.47;100.00;98628.81;6307685;22;20071;-85
2022/09/29 07:52:35;;;;;;;3.50;1.40;;;;;;;11.46;100.00;98630.81;6310172;22;20022;-84
2022/09/29 07:55:01;;;;;;;1.73;1.30;;;;;;;11.47;100.00;98643.47;6283886;22;19998;-84
2022/09/29 07:57:27;;;;;;;1.23;1.10;;;;;;;11.51;100.00;98640.50;6283425;22;20164;-85
2022/09/29 07:59:53;;;;;;;2.78;1.27;;;;;;;11.44;100.00;98638.09;6309244;22;20015;-85
2022/09/29 08:02:19;;;;;;;2.45;1.40;;;;;;;11.60;100.00;98641.19;6283480;22;20160;-85
2022/09/29 08:04:45;;;;;;;4.10;1.40;;;;;;;11.66;100.00;98641.28;6282716;22;20098;-84
2022/09/29 08:07:11;;;;;;;4.13;1.30;;;;;;;11.73;100.00;98638.13;6283202;22;20336;-85
2022/09/29 08:09:36;;;;;;;2.13;1.35;;;;;;;11.70;100.00;98652.97;6309758;22;20006;-85
2022/09/29 08:12:02;;;;;;;2.70;1.50;;;;;;;11.61;100.00;98647.47;6257536;22;20325;-84
2022/09/29 08:14:28;;;;;;;2.17;1.27;;;;;;;11.69;100.00;98651.41;6283100;22;20015;-84
2022/09/29 08:16:54;;;;;;;1.23;1.08;;;;;;;11.71;100.00;98646.16;6307487;22;20142;-84
2022/09/29 08:19:19;;;;;;;2.58;1.20;;;;;;;11.74;100.00;98650.78;6256364;22;20051;-84
2022/09/29 08:21:48;;;;;;;2.35;1.60;;;;;;;11.85;100.00;98645.41;6283662;22;20025;-84
2022/09/29 08:24:16;;;;;;;1.45;1.33;;;;;;;12.01;100.00;98646.97;6283700;22;20427;-84
2022/09/29 08:26:42;;;;;;;1.95;1.10;;;;;;;11.98;100.00;98647.91;6283734;22;20352;-84
2022/09/29 08:29:07;;;;;;;5.50;1.40;;;;;;;11.94;100.00;98645.31;6282548;22;20030;-84
2022/09/29 08:31:33;;;;;;;2.35;1.50;;;;;;;11.99;100.00;98633.56;6283196;22;20013;-84
2022/09/29 08:33:58;;;;;;;3.58;1.50;;;;;;;12.04;100.00;98646.78;6282121;22;20003;-84
2022/09/29 08:36:26;;;;;;;2.58;1.63;;;;;;;11.97;100.00;98643.63;6283067;22;20025;-84
2022/09/29 08:38:53;;;;;;;2.00;1.40;;;;;;;12.00;100.00;98651.00;6257894;22;20052;-84
2022/09/29 08:41:37;;;;;;;2.00;1.50;;;;;;;12.08;100.00;98644.56;6282973;22;20021;-84
2022/09/29 08:44:33;;;;;;;2.17;1.60;;;;;;;12.01;100.00;98635.84;6283134;22;20018;-84
2022/09/29 08:47:04;;;;;;;1.70;1.50;;;;;;;12.00;100.00;98642.66;6228799;22;20026;-83
2022/09/29 08:49:38;;;;;;;2.75;1.63;;;;;;;11.90;100.00;98635.66;6308525;22;20013;-83
2022/09/29 08:52:14;;;;;;;1.90;1.60;;;;;;;11.86;100.00;98627.50;6283223;22;20011;-84
2022/09/29 08:54:42;;;;;;;2.65;1.55;;;;;;;11.78;100.00;98629.13;6308574;22;20085;-84
2022/09/29 08:57:18;;;;;;;3.65;1.85;;;;;;;11.70;100.00;98636.28;6282169;22;20014;-86
2022/09/29 08:59:52;;;;;;;2.42;1.70;;;;;;;11.65;100.00;98621.06;6282967;22;20011;-87
2022/09/29 09:02:37;;;;;;;2.00;1.58;;;;;;;11.67;100.00;98624.13;6256385;22;20090;-89
2022/09/29 09:05:34;;;;;;;2.13;1.70;;;;;;;11.66;100.00;98638.50;6308339;22;20407;-90
2022/09/29 09:08:18;;;;;;;2.72;1.80;;;;;;;11.62;100.00;98638.69;6309163;22;20007;-88
2022/09/29 09:10:46;;;;;;;2.33;1.75;;;;;;;11.56;100.00;98634.28;6308632;22;20026;-88
2022/09/29 09:13:27;;;;;;;3.00;2.03;;;;;;;11.54;100.00;98631.22;6256983;22;20007;-88
2022/09/29 09:16:02;;;;;;;5.40;2.10;;;;;;;11.57;100.00;98639.34;6308195;22;20441;-88
2022/09/29 09:19:01;;;;;;;2.70;1.98;;;;;;;11.57;100.00;98641.34;6282598;22;20018;-87
2022/09/29 09:21:45;;;;;;;4.25;2.35;;;;;;;11.56;100.00;98635.06;6336157;22;20021;-88
2022/09/29 09:24:27;;;;;;;3.33;1.88;;;;;;;11.66;100.00;98646.81;6308648;22;20017;-89
2022/09/29 09:26:53;;;;;;;3.28;2.30;;;;;;;11.65;100.00;98650.84;6283148;22;20454;-89
2022/09/29 09:29:41;;;;;;;3.22;2.10;;;;;;;11.64;100.00;98657.66;6282596;22;20012;-88
2022/09/29 09:32:11;;;;;;;3.00;1.98;;;;;;;11.67;100.00;98673.38;6307818;22;20467;-89
2022/09/29 09:34:56;;;;;;;3.08;2.10;;;;;;;11.74;100.00;98686.91;6282916;22;20015;-87
2022/09/29 09:37:26;;;;;;;4.60;2.20;;;;;;;11.77;100.00;98690.75;6308351;22;20098;-87
2022/09/29 09:39:56;;;;;;;3.60;2.40;;;;;;;11.90;100.00;98697.53;6257248;22;20048;-88
2022/09/29 09:42:26;;;;;;;3.55;2.28;;;;;;;12.02;100.00;98687.38;6308800;22;20056;-87
2022/09/29 09:44:57;;;;;;;4.63;2.47;;;;;;;12.11;100.00;98696.41;6282649;22;20060;-88
2022/09/29 09:47:39;;;;;;;3.65;2.55;;;;;;;12.26;100.00;98707.50;6308088;22;20011;-88
2022/09/29 09:50:13;;;;;;;2.88;2.22;;;;;;;12.46;100.00;98709.59;6308148;22;20021;-88
2022/09/29 09:52:52;;;;;;;3.33;2.30;;;;;;;12.59;100.00;98690.59;6282999;22;20011;-89
2022/09/29 09:55:25;;;;;;;3.92;2.33;;;;;;;12.79;100.00;98685.06;6307941;22;20006;-88
2022/09/29 09:58:17;;;;;;;3.13;2.30;;;;;;;12.88;100.00;98681.41;6283005;22;20041;-88
2022/09/29 10:00:56;;;;;;;3.22;2.30;;;;;;;12.88;100.00;98668.25;6280622;22;20093;-87
2022/09/29 10:03:21;;;;;;;5.57;3.85;;;;;;;12.97;100.00;98662.56;6308199;22;20038;-87
2022/09/29 10:05:48;;;;;;;6.90;4.88;;;;;;;13.04;100.00;98659.34;6306609;22;20018;-87
2022/09/29 10:08:26;;;;;;;5.72;4.07;;;;;;;13.01;100.00;98660.34;6282100;22;20287;-87
2022/09/29 10:10:52;;;;;;;6.57;4.15;;;;;;;13.01;100.00;98665.13;6308168;22;20017;-86
2022/09/29 10:13:18;;;;;;;4.68;3.22;;;;;;;12.94;100.00;98671.13;6256542;22;20036;-87
2022/09/29 10:16:19;;;;;;;3.38;2.40;;;;;;;12.74;100.00;98674.63;6281754;22;20011;-87
2022/09/29 10:18:47;;;;;;;3.30;2.28;;;;;;;12.80;100.00;98677.50;6282231;22;20022;-87
2022/09/29 10:21:27;;;;;;;3.00;2.70;;;;;;;12.86;100.00;98667.22;6256813;22;20010;-87
2022/09/29 10:23:54;;;;;;;3.63;2.25;;;;;;;13.16;100.00;98665.09;6282497;22;20019;-87
2022/09/29 10:26:26;;;;;;;3.25;2.30;;;;;;;13.53;100.00;98666.03;6256674;22;20082;-87
2022/09/29 10:28:57;;;;;;;3.05;2.13;;;;;;;13.75;100.00;98671.81;6308081;22;20086;-87
2022/09/29 10:31:28;;;;;;;3.72;2.20;;;;;;;13.95;100.00;98663.41;6307573;22;20032;-87
2022/09/29 10:33:58;;;;;;;4.45;2.22;;;;;;;14.05;100.00;98669.59;6282450;22;20015;-84
2022/09/29 10:36:31;;;;;;;4.43;2.17;;;;;;;14.13;100.00;98672.69;6307459;22;20028;-87
2022/09/29 10:38:57;;;;;;;3.67;2.17;;;;;;;14.14;100.00;98680.56;6282469;22;20018;-85
2022/09/29 10:41:24;;;;;;;4.55;2.03;;;;;;;14.30;100.00;98679.19;6282647;22;20116;-85
2022/09/29 10:43:51;;;;;;;3.42;1.95;;;;;;;14.65;100.00;98679.72;6282508;22;20014;-87
2022/09/29 10:46:35;;;;;;;2.80;2.03;;;;;;;15.06;100.00;98680.22;6281631;22;20359;-87
2022/09/29 10:49:16;;;;;;;2.45;1.90;;;;;;;15.46;100.00;98690.28;6282400;22;20238;-85
2022/09/29 10:52:09;;;;;;;2.83;2.08;;;;;;;15.64;100.00;98683.53;6308605;22;20025;-87
2022/09/29 10:54:39;;;;;;;2.67;1.85;;;;;;;15.98;100.00;98701.13;6288765;22;20052;-87
2022/09/29 10:57:15;;;;;;;2.15;1.85;;;;;;;16.18;100.00;98698.09;6258532;22;20017;-90
2022/09/29 10:59:48;;;;;;;3.60;1.70;;;;;;;16.19;100.00;98713.63;6284303;22;20014;-89
2022/09/29 11:02:36;;;;;;;2.63;2.00;;;;;;;16.30;100.00;98716.41;6308570;22;20080;-87
2022/09/29 11:05:15;;;;;;;2.80;1.90;;;;;;;16.12;99.89;98700.91;6310195;22;20022;-87
2022/09/29 11:07:49;;;;;;;2.70;1.50;;;;;;;16.45;100.00;98688.97;6309721;22;20011;-86
2022/09/29 11:10:34;;;;;;;;;;;;;;;16.58;100.00;98708.81;6310241;22;20093;-87
2022/09/29 11:13:23;;;;;;;3.35;1.85;;;;;;;16.60;95.23;98717.50;6284374;22;19910;-88
2022/09/29 11:15:49;;;;;;;2.03;1.50;;;;;;;16.16;91.43;98712.63;6288741;22;20022;-84
2022/09/29 11:18:19;;;;;;;1.92;1.40;;;;;;;15.75;95.93;98711.50;6283295;22;20011;-83
2022/09/29 11:20:49;;;;;;;1.90;1.23;;;;;;;15.77;96.89;98726.50;6284027;22;20010;-84
2022/09/29 11:23:50;;;;;;;2.00;1.52;;;;;;;15.91;98.49;98730.34;6284112;22;20006;-83
2022/09/29 11:26:32;;;;;;;2.15;1.65;;;;;;;15.57;100.00;98723.88;6256070;22;20045;-86
2022/09/29 11:29:16;;;;;;;1.58;1.38;;;;;;;15.21;100.00;98745.03;6258091;22;20347;-85
2022/09/29 11:31:51;;;;;;;2.72;1.77;;;;;;;14.89;100.00;98749.16;6309471;22;20396;-84
2022/09/29 11:34:29;;;;;;;1.75;1.45;;;;;;;15.12;100.00;98738.91;6256787;22;20395;-85
2022/09/29 11:36:59;;;;;;;2.83;1.70;;;;;;;14.73;100.00;98747.78;6307266;22;20550;-85
2022/09/29 11:39:30;;;;;;;2.28;1.60;;;;;;;14.57;100.00;98728.88;6281382;22;20094;-85
2022/09/29 11:41:58;;;;;;;2.33;1.60;;;;;;;14.48;100.00;98735.41;6331729;22;20006;-85
2022/09/29 11:44:43;;;;;;;2.10;1.42;;;;;;;14.47;100.00;98735.91;6278529;22;20003;-85
2022/09/29 11:47:31;;;;;;;2.30;1.40;;;;;;;14.24;100.00;98739.72;6335254;22;20071;-85